Time,TemperatureF,DewpointF,PressureIn,WindDirection,WindDirectionDegrees,WindSpeedMPH,WindSpeedGustMPH,Humidity,HourlyPrecipIn,Conditions,Clouds,dailyrainin,SoftwareType,DateUTC
2013-07-06 00:01:00,55.0,43.0,29.83,NW,318,0.0,1.0,63,0.00,,,0.00,,2013-07-06 06:01:00,
2013-07-06 00:12:00,55.0,43.0,29.83,NW,318,0.0,1.0,63,0.00,,,0.00,,2013-07-06 06:12:00,
2013-07-06 00:22:00,54.0,43.0,29.85,NW,316,0.0,1.0,65,0.00,,,0.00,,2013-07-06 06:22:00,
2013-07-06 00:33:00,54.0,43.0,29.85,NW,316,0.0,1.0,65,0.00,,,0.00,,2013-07-06 06:33:00,
2013-07-06 00:43:00,54.0,43.0,29.85,NW,316,0.0,1.0,65,0.00,,,0.00,,2013-07-06 06:43:00,
2013-07-06 00:53:00,53.0,42.0,29.84,NW,316,0.0,1.0,67,0.00,,,0.00,,2013-07-06 06:53:00,
2013-07-06 01:01:00,53.0,42.0,29.84,NW,316,0.0,1.0,67,0.00,,,0.00,,2013-07-06 07:01:00,
2013-07-06 01:12:00,53.0,42.0,29.84,NW,316,0.0,1.0,67,0.00,,,0.00,,2013-07-06 07:12:00,
2013-07-06 01:22:00,52.0,42.0,29.84,NW,316,0.0,1.0,68,0.00,,,0.00,,2013-07-06 07:22:00,
2013-07-06 01:33:00,52.0,42.0,29.84,NW,316,0.0,1.0,68,0.00,,,0.00,,2013-07-06 07:33:00,
2013-07-06 01:44:00,52.0,42.0,29.84,NW,316,0.0,1.0,68,0.00,,,0.00,,2013-07-06 07:44:00,
2013-07-06 01:52:00,51.0,42.0,29.85,North,355,0.0,0.0,70,0.00,,,0.00,,2013-07-06 07:52:00,
2013-07-06 02:02:00,51.0,42.0,29.85,North,355,0.0,0.0,70,0.00,,,0.00,,2013-07-06 08:02:00,
2013-07-06 02:11:00,51.0,42.0,29.85,North,355,0.0,0.0,70,0.00,,,0.00,,2013-07-06 08:11:00,
2013-07-06 02:21:00,50.0,41.0,29.85,North,355,0.0,0.0,71,0.00,,,0.00,,2013-07-06 08:21:00,
2013-07-06 02:33:00,50.0,41.0,29.85,North,355,0.0,0.0,71,0.00,,,0.00,,2013-07-06 08:33:00,
2013-07-06 02:43:00,50.0,41.0,29.85,North,355,0.0,0.0,71,0.00,,,0.00,,2013-07-06 08:43:00,
2013-07-06 02:54:00,50.0,41.0,29.85,North,355,0.0,0.0,72,0.00,,,0.00,,2013-07-06 08:54:00,
2013-07-06 03:02:00,50.0,41.0,29.85,North,355,0.0,0.0,72,0.00,,,0.00,,2013-07-06 09:02:00,
2013-07-06 03:11:00,50.0,41.0,29.85,North,355,0.0,0.0,72,0.00,,,0.00,,2013-07-06 09:11:00,
2013-07-06 03:22:00,49.0,41.0,29.86,North,355,0.0,0.0,73,0.00,,,0.00,,2013-07-06 09:22:00,
2013-07-06 03:33:00,49.0,41.0,29.86,North,355,0.0,0.0,73,0.00,,,0.00,,2013-07-06 09:33:00,
2013-07-06 03:43:00,49.0,41.0,29.86,North,355,0.0,0.0,73,0.00,,,0.00,,2013-07-06 09:43:00,
2013-07-06 03:52:00,49.0,40.0,29.85,North,355,0.0,0.0,71,0.00,,,0.00,,2013-07-06 09:52:00,
2013-07-06 04:02:00,49.0,40.0,29.85,North,355,0.0,0.0,71,0.00,,,0.00,,2013-07-06 10:02:00,
2013-07-06 04:11:00,49.0,40.0,29.85,North,355,0.0,0.0,71,0.00,,,0.00,,2013-07-06 10:11:00,
2013-07-06 04:22:00,49.0,40.0,29.85,North,355,0.0,1.0,72,0.00,,,0.00,,2013-07-06 10:22:00,
2013-07-06 04:33:00,49.0,40.0,29.85,North,355,0.0,1.0,72,0.00,,,0.00,,2013-07-06 10:33:00,
2013-07-06 04:43:00,49.0,40.0,29.85,North,355,0.0,1.0,72,0.00,,,0.00,,2013-07-06 10:43:00,
2013-07-06 04:53:00,48.0,41.0,29.86,North,355,0.0,0.0,76,0.00,,,0.00,,2013-07-06 10:53:00,
2013-07-06 05:01:00,48.0,41.0,29.86,North,355,0.0,0.0,76,0.00,,,0.00,,2013-07-06 11:01:00,
2013-07-06 05:11:00,48.0,41.0,29.86,North,355,0.0,0.0,76,0.00,,,0.00,,2013-07-06 11:11:00,
2013-07-06 05:21:00,47.0,41.0,29.87,North,355,0.0,1.0,78,0.00,,,0.00,,2013-07-06 11:21:00,
2013-07-06 05:32:00,47.0,41.0,29.87,North,355,0.0,1.0,78,0.00,,,0.00,,2013-07-06 11:32:00,
2013-07-06 05:43:00,47.0,41.0,29.87,North,355,0.0,1.0,78,0.00,,,0.00,,2013-07-06 11:43:00,
2013-07-06 05:53:00,47.0,41.0,29.88,North,355,0.0,0.0,79,0.00,,,0.00,,2013-07-06 11:53:00,
2013-07-06 06:01:00,47.0,41.0,29.88,North,355,0.0,0.0,79,0.00,,,0.00,,2013-07-06 12:01:00,
2013-07-06 06:11:00,47.0,41.0,29.88,North,355,0.0,0.0,79,0.00,,,0.00,,2013-07-06 12:11:00,
2013-07-06 06:21:00,47.0,41.0,29.88,North,355,0.0,1.0,80,0.00,,,0.00,,2013-07-06 12:21:00,
2013-07-06 06:33:00,47.0,41.0,29.88,North,355,0.0,1.0,80,0.00,,,0.00,,2013-07-06 12:33:00,
2013-07-06 06:43:00,47.0,41.0,29.88,North,355,0.0,1.0,80,0.00,,,0.00,,2013-07-06 12:43:00,
2013-07-06 06:52:00,47.0,41.0,29.87,North,355,0.0,0.0,81,0.00,,,0.00,,2013-07-06 12:52:00,
2013-07-06 07:11:00,47.0,41.0,29.87,North,355,0.0,0.0,81,0.00,,,0.00,,2013-07-06 13:11:00,
2013-07-06 07:22:00,47.0,42.0,29.87,North,355,0.0,0.0,83,0.00,,,0.00,,2013-07-06 13:22:00,
2013-07-06 07:33:00,47.0,42.0,29.87,North,355,0.0,0.0,83,0.00,,,0.00,,2013-07-06 13:33:00,
2013-07-06 07:43:00,47.0,42.0,29.87,North,355,0.0,0.0,83,0.00,,,0.00,,2013-07-06 13:43:00,
2013-07-06 07:52:00,49.0,44.0,29.89,North,355,0.0,0.0,83,0.00,,,0.00,,2013-07-06 13:52:00,
2013-07-06 08:02:00,49.0,44.0,29.89,North,355,0.0,0.0,83,0.00,,,0.00,,2013-07-06 14:02:00,
2013-07-06 08:11:00,49.0,44.0,29.89,North,355,0.0,0.0,83,0.00,,,0.00,,2013-07-06 14:11:00,
2013-07-06 08:34:00,53.0,47.0,29.87,North,355,0.0,0.0,81,0.00,,,0.00,,2013-07-06 14:34:00,
2013-07-06 08:42:00,53.0,47.0,29.87,North,355,0.0,0.0,81,0.00,,,0.00,,2013-07-06 14:42:00,
2013-07-06 08:53:00,57.0,47.0,29.88,North,355,0.0,1.0,70,0.00,,,0.00,,2013-07-06 14:53:00,
2013-07-06 09:02:00,57.0,47.0,29.88,North,355,0.0,1.0,70,0.00,,,0.00,,2013-07-06 15:02:00,
2013-07-06 09:12:00,57.0,47.0,29.88,North,355,0.0,1.0,70,0.00,,,0.00,,2013-07-06 15:12:00,
2013-07-06 09:22:00,62.0,46.0,29.89,North,5,0.0,2.0,56,0.00,,,0.00,,2013-07-06 15:22:00,
2013-07-06 09:33:00,62.0,46.0,29.89,North,5,0.0,2.0,56,0.00,,,0.00,,2013-07-06 15:33:00,
2013-07-06 09:43:00,62.0,46.0,29.89,North,5,0.0,2.0,56,0.00,,,0.00,,2013-07-06 15:43:00,
2013-07-06 09:53:00,66.0,47.0,29.90,NW,325,0.0,4.0,51,0.00,,,0.00,,2013-07-06 15:53:00,
2013-07-06 10:22:00,68.0,46.0,29.88,West,269,1.0,5.0,46,0.00,,,0.00,,2013-07-06 16:22:00,
2013-07-06 10:33:00,68.0,46.0,29.88,West,269,1.0,5.0,46,0.00,,,0.00,,2013-07-06 16:33:00,
2013-07-06 10:57:00,68.0,46.0,29.88,West,269,1.0,5.0,46,0.00,,,0.00,,2013-07-06 16:57:00,
2013-07-06 11:15:00,69.0,45.0,29.90,NW,326,0.0,6.0,42,0.00,,,0.00,,2013-07-06 17:15:00,
2013-07-06 12:02:00,71.0,47.0,29.88,SE,133,1.0,5.0,42,0.00,,,0.00,,2013-07-06 18:02:00,
2013-07-06 12:16:00,71.0,47.0,29.88,SE,133,1.0,5.0,42,0.00,,,0.00,,2013-07-06 18:16:00,
2013-07-06 12:24:00,72.0,44.0,29.89,NE,52,2.0,4.0,37,0.00,,,0.00,,2013-07-06 18:24:00,
2013-07-06 13:02:00,73.0,48.0,29.87,SE,144,4.0,9.0,41,0.00,,,0.00,,2013-07-06 19:02:00,
2013-07-06 13:15:00,73.0,48.0,29.87,SE,144,4.0,9.0,41,0.00,,,0.00,,2013-07-06 19:15:00,
2013-07-06 13:24:00,72.0,46.0,29.87,ESE,111,2.0,4.0,39,0.00,,,0.00,,2013-07-06 19:24:00,
2013-07-06 13:33:00,72.0,46.0,29.87,ESE,111,2.0,4.0,39,0.00,,,0.00,,2013-07-06 19:33:00,
2013-07-06 14:34:00,74.0,46.0,29.86,East,85,3.0,5.0,37,0.00,,,0.00,,2013-07-06 20:34:00,
2013-07-06 15:02:00,77.0,46.0,29.84,South,191,4.0,9.0,33,0.00,,,0.00,,2013-07-06 21:02:00,
2013-07-06 15:14:00,77.0,46.0,29.84,South,191,4.0,9.0,33,0.00,,,0.00,,2013-07-06 21:14:00,
2013-07-06 15:25:00,74.0,46.0,29.85,East,98,1.0,5.0,37,0.00,,,0.00,,2013-07-06 21:25:00,
2013-07-06 16:02:00,74.0,43.0,29.85,ENE,71,1.0,4.0,33,0.00,,,0.00,,2013-07-06 22:02:00,
2013-07-06 16:34:00,73.0,46.0,29.85,ENE,67,2.0,5.0,38,0.00,,,0.00,,2013-07-06 22:34:00,
2013-07-06 16:57:00,73.0,46.0,29.85,ENE,67,2.0,5.0,38,0.00,,,0.00,,2013-07-06 22:57:00,
2013-07-06 18:02:00,72.0,45.0,29.83,ESE,115,1.0,3.0,38,0.00,,,0.00,,2013-07-07 00:02:00,
2013-07-06 18:03:00,74.0,41.0,29.82,East,86,1.0,5.0,31,0.00,,,0.00,,2013-07-07 00:03:00,
2013-07-06 18:16:00,72.0,45.0,29.83,ESE,115,1.0,3.0,38,0.00,,,0.00,,2013-07-07 00:16:00,
2013-07-06 18:33:00,74.0,41.0,29.82,East,86,1.0,5.0,31,0.00,,,0.00,,2013-07-07 00:33:00,
2013-07-06 18:58:00,74.0,41.0,29.82,East,86,1.0,5.0,31,0.00,,,0.00,,2013-07-07 00:58:00,
2013-07-06 21:41:00,72.0,44.0,29.81,East,98,0.0,1.0,36,0.00,,,0.00,,2013-07-07 03:41:00,
2013-07-06 21:51:00,72.0,44.0,29.81,East,98,0.0,1.0,36,0.00,,,0.00,,2013-07-07 03:51:00,
2013-07-06 21:59:00,72.0,44.0,29.81,East,98,0.0,1.0,36,0.00,,,0.00,,2013-07-07 03:59:00,
2013-07-06 22:01:00,72.0,44.0,29.81,East,98,0.0,1.0,36,0.00,,,0.00,,2013-07-07 04:01:00,